Steptoe, Washington
Current Conditions -  °F | °C
As of 6:53 PM on Sunday 21 Dec 2014 (Local Time) from KPUW Reporting Station
Clear Clear  
Wind Chill: 35°   Ceiling: Unl
Heat Index: 44°   Visibility: 10mi
Dew Point: 38°   Wind: 22mph
Humidity: 79%   Direction: 250°WSW
Pressure: 29.95"   Gusts: 30mph
Location:  47.01°N, 117.36°W
Report Text: KPUW 220253Z AUTO 25019G26KT 10SM CLR 07/03 A2995 RMK AO2 PK WND 24026/0244 SLP151 T00670033 50006
Loading
Personal Weather Stations






























Interactive Weather Map New forecast layout! Learn more

10-Day Weather Forecast

Advertisements
Track Severe Weather on mobile